sensor_id;sensor_type;location;lat;lon;timestamp;P1;durP1;ratioP1;P2;durP2;ratioP2
2177;SDS011;1095;50.992;6.798;2023-02-11T00:01:54;34.97;;;22.88;;
2177;SDS011;1095;50.992;6.798;2023-02-11T00:04:22;39.35;;;23.85;;
2177;SDS011;1095;50.992;6.798;2023-02-11T00:06:49;41.42;;;24.27;;
2177;SDS011;1095;50.992;6.798;2023-02-11T00:09:16;38.53;;;24.42;;
2177;SDS011;1095;50.992;6.798;2023-02-11T00:11:42;40.70;;;23.58;;
2177;SDS011;1095;50.992;6.798;2023-02-11T00:14:09;38.42;;;24.30;;
2177;SDS011;1095;50.992;6.798;2023-02-11T00:16:36;33.92;;;23.20;;
2177;SDS011;1095;50.992;6.798;2023-02-11T00:19:03;35.58;;;23.95;;
2177;SDS011;1095;50.992;6.798;2023-02-11T00:21:32;41.80;;;23.85;;
2177;SDS011;1095;50.992;6.798;2023-02-11T00:23:59;32.70;;;22.15;;
2177;SDS011;1095;50.992;6.798;2023-02-11T00:26:27;36.75;;;22.77;;
2177;SDS011;1095;50.992;6.798;2023-02-11T00:28:55;35.58;;;22.05;;
2177;SDS011;1095;50.992;6.798;2023-02-11T00:31:22;38.25;;;24.02;;
2177;SDS011;1095;50.992;6.798;2023-02-11T00:33:49;35.92;;;22.45;;
2177;SDS011;1095;50.992;6.798;2023-02-11T00:36:16;38.20;;;22.55;;
2177;SDS011;1095;50.992;6.798;2023-02-11T00:38:46;37.75;;;23.98;;
2177;SDS011;1095;50.992;6.798;2023-02-11T00:41:14;37.70;;;22.95;;
2177;SDS011;1095;50.992;6.798;2023-02-11T00:43:42;38.42;;;23.38;;
2177;SDS011;1095;50.992;6.798;2023-02-11T00:46:09;40.17;;;23.80;;
2177;SDS011;1095;50.992;6.798;2023-02-11T00:48:36;35.40;;;22.88;;
2177;SDS011;1095;50.992;6.798;2023-02-11T00:51:03;34.90;;;22.52;;
2177;SDS011;1095;50.992;6.798;2023-02-11T00:53:30;37.13;;;23.13;;
2177;SDS011;1095;50.992;6.798;2023-02-11T00:55:59;35.97;;;23.85;;
2177;SDS011;1095;50.992;6.798;2023-02-11T00:58:26;37.33;;;23.40;;
2177;SDS011;1095;50.992;6.798;2023-02-11T01:00:53;35.97;;;24.08;;
2177;SDS011;1095;50.992;6.798;2023-02-11T01:03:20;37.95;;;24.48;;
2177;SDS011;1095;50.992;6.798;2023-02-11T01:05:47;36.38;;;23.30;;
2177;SDS011;1095;50.992;6.798;2023-02-11T01:08:14;41.78;;;24.95;;
2177;SDS011;1095;50.992;6.798;2023-02-11T01:10:41;43.95;;;24.80;;
2177;SDS011;1095;50.992;6.798;2023-02-11T01:13:09;37.88;;;25.33;;
2177;SDS011;1095;50.992;6.798;2023-02-11T01:15:36;36.40;;;23.55;;
2177;SDS011;1095;50.992;6.798;2023-02-11T01:18:03;39.90;;;25.13;;
2177;SDS011;1095;50.992;6.798;2023-02-11T01:20:30;40.35;;;24.90;;
2177;SDS011;1095;50.992;6.798;2023-02-11T01:22:57;37.03;;;24.73;;
2177;SDS011;1095;50.992;6.798;2023-02-11T01:25:23;38.97;;;24.73;;
2177;SDS011;1095;50.992;6.798;2023-02-11T01:27:50;39.42;;;25.17;;
2177;SDS011;1095;50.992;6.798;2023-02-11T01:30:18;41.05;;;24.98;;
2177;SDS011;1095;50.992;6.798;2023-02-11T01:32:44;39.97;;;24.60;;
2177;SDS011;1095;50.992;6.798;2023-02-11T01:35:11;42.92;;;25.42;;
2177;SDS011;1095;50.992;6.798;2023-02-11T01:37:37;37.40;;;24.48;;
2177;SDS011;1095;50.992;6.798;2023-02-11T01:40:05;38.92;;;24.88;;
2177;SDS011;1095;50.992;6.798;2023-02-11T01:42:34;39.80;;;24.73;;
2177;SDS011;1095;50.992;6.798;2023-02-11T01:45:03;39.80;;;24.80;;
2177;SDS011;1095;50.992;6.798;2023-02-11T01:48:19;37.15;;;24.70;;
2177;SDS011;1095;50.992;6.798;2023-02-11T01:50:49;41.58;;;24.67;;
2177;SDS011;1095;50.992;6.798;2023-02-11T01:53:19;39.22;;;24.52;;
2177;SDS011;1095;50.992;6.798;2023-02-11T01:56:04;40.97;;;24.75;;
2177;SDS011;1095;50.992;6.798;2023-02-11T01:58:49;38.10;;;24.60;;
2177;SDS011;1095;50.992;6.798;2023-02-11T02:01:21;39.33;;;25.55;;
2177;SDS011;1095;50.992;6.798;2023-02-11T02:03:51;40.40;;;25.85;;
2177;SDS011;1095;50.992;6.798;2023-02-11T02:06:23;45.53;;;25.00;;
2177;SDS011;1095;50.992;6.798;2023-02-11T02:08:57;45.30;;;25.80;;
2177;SDS011;1095;50.992;6.798;2023-02-11T02:11:27;38.10;;;24.70;;
2177;SDS011;1095;50.992;6.798;2023-02-11T02:13:54;41.08;;;25.50;;
2177;SDS011;1095;50.992;6.798;2023-02-11T02:16:23;46.13;;;25.08;;
2177;SDS011;1095;50.992;6.798;2023-02-11T02:18:58;42.30;;;25.70;;
2177;SDS011;1095;50.992;6.798;2023-02-11T02:24:53;46.92;;;25.42;;
2177;SDS011;1095;50.992;6.798;2023-02-11T02:27:29;42.78;;;26.35;;
2177;SDS011;1095;50.992;6.798;2023-02-11T02:30:15;46.40;;;26.38;;
2177;SDS011;1095;50.992;6.798;2023-02-11T02:33:06;43.03;;;26.20;;
2177;SDS011;1095;50.992;6.798;2023-02-11T02:35:45;45.03;;;27.00;;
2177;SDS011;1095;50.992;6.798;2023-02-11T02:38:17;43.33;;;25.52;;
2177;SDS011;1095;50.992;6.798;2023-02-11T02:40:49;46.58;;;27.27;;
2177;SDS011;1095;50.992;6.798;2023-02-11T02:43:21;47.70;;;28.33;;
2177;SDS011;1095;50.992;6.798;2023-02-11T02:45:50;51.33;;;28.50;;
2177;SDS011;1095;50.992;6.798;2023-02-11T02:48:28;47.88;;;27.10;;
2177;SDS011;1095;50.992;6.798;2023-02-11T02:51:00;47.45;;;27.33;;
2177;SDS011;1095;50.992;6.798;2023-02-11T02:53:40;47.45;;;28.55;;
2177;SDS011;1095;50.992;6.798;2023-02-11T02:56:12;46.63;;;27.55;;
2177;SDS011;1095;50.992;6.798;2023-02-11T03:01:49;49.60;;;27.83;;
2177;SDS011;1095;50.992;6.798;2023-02-11T03:04:25;42.72;;;26.80;;
2177;SDS011;1095;50.992;6.798;2023-02-11T03:06:59;47.35;;;27.20;;
2177;SDS011;1095;50.992;6.798;2023-02-11T03:11:59;45.35;;;28.27;;
2177;SDS011;1095;50.992;6.798;2023-02-11T03:14:28;53.45;;;31.20;;
2177;SDS011;1095;50.992;6.798;2023-02-11T03:16:57;58.75;;;31.73;;
2177;SDS011;1095;50.992;6.798;2023-02-11T03:19:29;49.88;;;29.60;;
2177;SDS011;1095;50.992;6.798;2023-02-11T03:22:00;50.13;;;31.02;;
2177;SDS011;1095;50.992;6.798;2023-02-11T03:24:31;51.22;;;30.33;;
2177;SDS011;1095;50.992;6.798;2023-02-11T03:27:00;51.97;;;29.80;;
2177;SDS011;1095;50.992;6.798;2023-02-11T03:29:34;51.70;;;29.77;;
2177;SDS011;1095;50.992;6.798;2023-02-11T03:32:05;52.67;;;32.13;;
2177;SDS011;1095;50.992;6.798;2023-02-11T03:34:43;51.45;;;30.85;;
2177;SDS011;1095;50.992;6.798;2023-02-11T03:37:15;48.00;;;29.92;;
2177;SDS011;1095;50.992;6.798;2023-02-11T03:39:45;46.83;;;29.35;;
2177;SDS011;1095;50.992;6.798;2023-02-11T03:42:17;43.80;;;28.10;;
2177;SDS011;1095;50.992;6.798;2023-02-11T03:44:45;48.28;;;28.58;;
2177;SDS011;1095;50.992;6.798;2023-02-11T03:47:15;51.65;;;30.17;;
2177;SDS011;1095;50.992;6.798;2023-02-11T03:49:48;48.75;;;28.45;;
2177;SDS011;1095;50.992;6.798;2023-02-11T03:52:17;43.53;;;29.33;;
2177;SDS011;1095;50.992;6.798;2023-02-11T03:54:45;46.08;;;28.35;;
2177;SDS011;1095;50.992;6.798;2023-02-11T03:57:16;44.47;;;27.75;;
2177;SDS011;1095;50.992;6.798;2023-02-11T03:59:50;45.63;;;27.15;;
2177;SDS011;1095;50.992;6.798;2023-02-11T04:02:18;48.83;;;26.88;;
2177;SDS011;1095;50.992;6.798;2023-02-11T04:04:47;47.13;;;27.25;;
2177;SDS011;1095;50.992;6.798;2023-02-11T04:07:14;44.42;;;26.25;;
2177;SDS011;1095;50.992;6.798;2023-02-11T04:09:40;47.85;;;27.25;;
2177;SDS011;1095;50.992;6.798;2023-02-11T04:12:07;43.65;;;26.27;;
2177;SDS011;1095;50.992;6.798;2023-02-11T04:14:34;48.85;;;28.40;;
2177;SDS011;1095;50.992;6.798;2023-02-11T04:17:00;48.22;;;27.42;;
2177;SDS011;1095;50.992;6.798;2023-02-11T04:19:27;45.33;;;27.05;;
2177;SDS011;1095;50.992;6.798;2023-02-11T04:21:56;46.42;;;27.20;;
2177;SDS011;1095;50.992;6.798;2023-02-11T04:24:22;44.88;;;26.92;;
2177;SDS011;1095;50.992;6.798;2023-02-11T04:26:49;50.65;;;27.90;;
2177;SDS011;1095;50.992;6.798;2023-02-11T04:29:16;49.08;;;26.10;;
2177;SDS011;1095;50.992;6.798;2023-02-11T04:31:43;52.05;;;27.23;;
2177;SDS011;1095;50.992;6.798;2023-02-11T04:34:09;40.72;;;25.88;;
2177;SDS011;1095;50.992;6.798;2023-02-11T04:36:36;46.22;;;25.48;;
2177;SDS011;1095;50.992;6.798;2023-02-11T04:39:04;47.55;;;26.55;;
2177;SDS011;1095;50.992;6.798;2023-02-11T04:41:31;42.83;;;27.00;;
2177;SDS011;1095;50.992;6.798;2023-02-11T04:43:58;41.58;;;25.65;;
2177;SDS011;1095;50.992;6.798;2023-02-11T04:46:24;44.03;;;27.08;;
2177;SDS011;1095;50.992;6.798;2023-02-11T04:48:51;46.35;;;25.42;;
2177;SDS011;1095;50.992;6.798;2023-02-11T04:51:17;44.95;;;25.42;;
2177;SDS011;1095;50.992;6.798;2023-02-11T04:53:44;44.78;;;25.77;;
2177;SDS011;1095;50.992;6.798;2023-02-11T04:56:12;48.75;;;26.35;;
2177;SDS011;1095;50.992;6.798;2023-02-11T04:58:39;47.88;;;25.48;;
2177;SDS011;1095;50.992;6.798;2023-02-11T05:01:05;44.22;;;26.40;;
2177;SDS011;1095;50.992;6.798;2023-02-11T05:03:33;45.80;;;25.92;;
2177;SDS011;1095;50.992;6.798;2023-02-11T05:06:02;44.00;;;25.88;;
2177;SDS011;1095;50.992;6.798;2023-02-11T05:08:29;48.00;;;26.67;;
2177;SDS011;1095;50.992;6.798;2023-02-11T05:10:56;46.45;;;26.63;;
2177;SDS011;1095;50.992;6.798;2023-02-11T05:13:24;47.75;;;25.80;;
2177;SDS011;1095;50.992;6.798;2023-02-11T05:15:51;45.30;;;26.42;;
2177;SDS011;1095;50.992;6.798;2023-02-11T05:18:18;45.65;;;25.55;;
2177;SDS011;1095;50.992;6.798;2023-02-11T05:20:45;44.42;;;25.30;;
2177;SDS011;1095;50.992;6.798;2023-02-11T05:23:11;46.92;;;26.75;;
2177;SDS011;1095;50.992;6.798;2023-02-11T05:25:38;47.15;;;26.02;;
2177;SDS011;1095;50.992;6.798;2023-02-11T05:28:05;46.38;;;26.58;;
2177;SDS011;1095;50.992;6.798;2023-02-11T05:30:33;56.80;;;29.13;;
2177;SDS011;1095;50.992;6.798;2023-02-11T05:33:00;43.40;;;26.30;;
2177;SDS011;1095;50.992;6.798;2023-02-11T05:35:26;45.33;;;27.17;;
2177;SDS011;1095;50.992;6.798;2023-02-11T05:37:53;49.97;;;27.63;;
2177;SDS011;1095;50.992;6.798;2023-02-11T05:40:20;50.38;;;29.00;;
2177;SDS011;1095;50.992;6.798;2023-02-11T05:42:46;53.55;;;29.08;;
2177;SDS011;1095;50.992;6.798;2023-02-11T05:45:13;51.72;;;29.70;;
2177;SDS011;1095;50.992;6.798;2023-02-11T05:47:41;46.58;;;27.67;;
2177;SDS011;1095;50.992;6.798;2023-02-11T05:50:07;50.63;;;29.60;;
2177;SDS011;1095;50.992;6.798;2023-02-11T05:52:34;59.40;;;29.25;;
2177;SDS011;1095;50.992;6.798;2023-02-11T05:55:01;52.72;;;29.13;;
2177;SDS011;1095;50.992;6.798;2023-02-11T05:57:27;56.05;;;29.73;;
2177;SDS011;1095;50.992;6.798;2023-02-11T05:59:54;55.20;;;31.20;;
2177;SDS011;1095;50.992;6.798;2023-02-11T06:02:21;50.47;;;28.55;;
2177;SDS011;1095;50.992;6.798;2023-02-11T06:04:49;54.47;;;30.15;;
2177;SDS011;1095;50.992;6.798;2023-02-11T06:07:15;55.35;;;30.08;;
2177;SDS011;1095;50.992;6.798;2023-02-11T06:09:43;53.45;;;30.70;;
2177;SDS011;1095;50.992;6.798;2023-02-11T06:12:10;51.42;;;29.80;;
2177;SDS011;1095;50.992;6.798;2023-02-11T06:14:37;54.50;;;31.35;;
2177;SDS011;1095;50.992;6.798;2023-02-11T06:17:03;52.42;;;29.00;;
2177;SDS011;1095;50.992;6.798;2023-02-11T06:19:30;47.58;;;29.67;;
2177;SDS011;1095;50.992;6.798;2023-02-11T06:21:58;53.63;;;29.63;;
2177;SDS011;1095;50.992;6.798;2023-02-11T06:24:25;52.72;;;30.63;;
2177;SDS011;1095;50.992;6.798;2023-02-11T06:26:51;62.15;;;33.10;;
2177;SDS011;1095;50.992;6.798;2023-02-11T06:29:18;51.15;;;29.13;;
2177;SDS011;1095;50.992;6.798;2023-02-11T06:31:45;52.10;;;30.50;;
2177;SDS011;1095;50.992;6.798;2023-02-11T06:34:11;58.28;;;31.35;;
2177;SDS011;1095;50.992;6.798;2023-02-11T06:36:38;62.90;;;31.55;;
2177;SDS011;1095;50.992;6.798;2023-02-11T06:39:06;52.70;;;32.30;;
2177;SDS011;1095;50.992;6.798;2023-02-11T06:41:33;54.30;;;30.17;;
2177;SDS011;1095;50.992;6.798;2023-02-11T06:44:00;54.55;;;31.33;;
2177;SDS011;1095;50.992;6.798;2023-02-11T06:46:26;59.33;;;31.35;;
2177;SDS011;1095;50.992;6.798;2023-02-11T06:48:53;52.70;;;30.55;;
2177;SDS011;1095;50.992;6.798;2023-02-11T06:51:19;58.97;;;31.42;;
2177;SDS011;1095;50.992;6.798;2023-02-11T06:53:46;55.30;;;32.28;;
2177;SDS011;1095;50.992;6.798;2023-02-11T06:56:15;70.07;;;33.58;;
2177;SDS011;1095;50.992;6.798;2023-02-11T06:58:43;60.10;;;33.08;;
2177;SDS011;1095;50.992;6.798;2023-02-11T07:01:11;54.65;;;32.03;;
2177;SDS011;1095;50.992;6.798;2023-02-11T07:03:40;59.22;;;30.80;;
2177;SDS011;1095;50.992;6.798;2023-02-11T07:06:10;61.92;;;32.70;;
2177;SDS011;1095;50.992;6.798;2023-02-11T07:08:38;66.97;;;34.70;;
2177;SDS011;1095;50.992;6.798;2023-02-11T07:11:07;67.65;;;34.53;;
2177;SDS011;1095;50.992;6.798;2023-02-11T07:13:36;65.97;;;33.78;;
2177;SDS011;1095;50.992;6.798;2023-02-11T07:16:04;68.60;;;35.03;;
2177;SDS011;1095;50.992;6.798;2023-02-11T07:18:31;72.15;;;34.20;;
2177;SDS011;1095;50.992;6.798;2023-02-11T07:20:58;66.20;;;34.20;;
2177;SDS011;1095;50.992;6.798;2023-02-11T07:23:25;61.90;;;34.60;;
2177;SDS011;1095;50.992;6.798;2023-02-11T07:25:51;66.95;;;34.60;;
2177;SDS011;1095;50.992;6.798;2023-02-11T07:28:18;70.10;;;36.67;;
2177;SDS011;1095;50.992;6.798;2023-02-11T07:30:46;83.70;;;38.45;;
2177;SDS011;1095;50.992;6.798;2023-02-11T07:33:13;71.20;;;36.85;;
2177;SDS011;1095;50.992;6.798;2023-02-11T07:35:39;68.22;;;36.03;;
2177;SDS011;1095;50.992;6.798;2023-02-11T07:38:06;74.53;;;36.33;;
2177;SDS011;1095;50.992;6.798;2023-02-11T07:40:32;74.28;;;36.10;;
2177;SDS011;1095;50.992;6.798;2023-02-11T07:42:59;79.68;;;37.50;;
2177;SDS011;1095;50.992;6.798;2023-02-11T07:45:27;73.55;;;38.17;;
2177;SDS011;1095;50.992;6.798;2023-02-11T07:47:55;83.00;;;37.40;;
2177;SDS011;1095;50.992;6.798;2023-02-11T07:50:24;76.97;;;36.20;;
2177;SDS011;1095;50.992;6.798;2023-02-11T07:52:51;77.63;;;36.65;;
2177;SDS011;1095;50.992;6.798;2023-02-11T07:55:18;79.22;;;36.47;;
2177;SDS011;1095;50.992;6.798;2023-02-11T07:57:44;80.65;;;38.53;;
2177;SDS011;1095;50.992;6.798;2023-02-11T08:00:11;76.32;;;35.20;;
2177;SDS011;1095;50.992;6.798;2023-02-11T08:02:39;80.45;;;37.50;;
2177;SDS011;1095;50.992;6.798;2023-02-11T08:05:07;80.70;;;37.97;;
2177;SDS011;1095;50.992;6.798;2023-02-11T08:07:34;81.88;;;35.67;;
2177;SDS011;1095;50.992;6.798;2023-02-11T08:10:01;74.63;;;35.75;;
2177;SDS011;1095;50.992;6.798;2023-02-11T08:12:27;75.50;;;35.70;;
2177;SDS011;1095;50.992;6.798;2023-02-11T08:14:54;77.28;;;38.63;;
2177;SDS011;1095;50.992;6.798;2023-02-11T08:17:21;88.55;;;38.25;;
2177;SDS011;1095;50.992;6.798;2023-02-11T08:19:47;86.80;;;38.95;;
2177;SDS011;1095;50.992;6.798;2023-02-11T08:22:17;82.30;;;37.03;;
2177;SDS011;1095;50.992;6.798;2023-02-11T08:24:44;80.80;;;36.80;;
2177;SDS011;1095;50.992;6.798;2023-02-11T08:27:10;72.82;;;34.92;;
2177;SDS011;1095;50.992;6.798;2023-02-11T08:29:37;75.35;;;35.10;;
2177;SDS011;1095;50.992;6.798;2023-02-11T08:32:04;75.32;;;35.15;;
2177;SDS011;1095;50.992;6.798;2023-02-11T08:34:30;70.20;;;33.42;;
2177;SDS011;1095;50.992;6.798;2023-02-11T08:36:58;74.78;;;33.85;;
2177;SDS011;1095;50.992;6.798;2023-02-11T08:39:25;73.75;;;34.10;;
2177;SDS011;1095;50.992;6.798;2023-02-11T08:41:53;67.97;;;34.45;;
2177;SDS011;1095;50.992;6.798;2023-02-11T08:44:21;74.35;;;35.53;;
2177;SDS011;1095;50.992;6.798;2023-02-11T08:46:48;76.32;;;34.25;;
2177;SDS011;1095;50.992;6.798;2023-02-11T08:49:15;71.07;;;32.95;;
2177;SDS011;1095;50.992;6.798;2023-02-11T08:51:42;67.30;;;32.95;;
2177;SDS011;1095;50.992;6.798;2023-02-11T08:54:10;77.95;;;34.80;;
2177;SDS011;1095;50.992;6.798;2023-02-11T08:56:38;69.68;;;34.90;;
2177;SDS011;1095;50.992;6.798;2023-02-11T08:59:05;70.63;;;35.35;;
2177;SDS011;1095;50.992;6.798;2023-02-11T09:01:33;67.75;;;35.15;;
2177;SDS011;1095;50.992;6.798;2023-02-11T09:04:00;63.80;;;32.60;;
2177;SDS011;1095;50.992;6.798;2023-02-11T09:06:27;65.70;;;32.35;;
2177;SDS011;1095;50.992;6.798;2023-02-11T09:08:55;69.15;;;33.13;;
2177;SDS011;1095;50.992;6.798;2023-02-11T09:11:24;67.22;;;32.80;;
2177;SDS011;1095;50.992;6.798;2023-02-11T09:13:54;61.92;;;33.22;;
2177;SDS011;1095;50.992;6.798;2023-02-11T09:16:22;65.85;;;32.83;;
2177;SDS011;1095;50.992;6.798;2023-02-11T09:18:50;59.95;;;32.35;;
2177;SDS011;1095;50.992;6.798;2023-02-11T09:21:16;65.07;;;33.47;;
2177;SDS011;1095;50.992;6.798;2023-02-11T09:23:44;64.63;;;32.55;;
2177;SDS011;1095;50.992;6.798;2023-02-11T09:26:12;67.05;;;32.55;;
2177;SDS011;1095;50.992;6.798;2023-02-11T09:28:40;62.33;;;32.47;;
2177;SDS011;1095;50.992;6.798;2023-02-11T09:31:09;63.08;;;31.13;;
2177;SDS011;1095;50.992;6.798;2023-02-11T09:33:38;63.38;;;30.42;;
2177;SDS011;1095;50.992;6.798;2023-02-11T09:36:12;61.80;;;31.67;;
2177;SDS011;1095;50.992;6.798;2023-02-11T09:38:39;64.53;;;33.85;;
2177;SDS011;1095;50.992;6.798;2023-02-11T09:41:11;59.10;;;32.30;;
2177;SDS011;1095;50.992;6.798;2023-02-11T09:43:51;60.58;;;31.85;;
2177;SDS011;1095;50.992;6.798;2023-02-11T09:46:22;58.67;;;31.52;;
2177;SDS011;1095;50.992;6.798;2023-02-11T09:48:52;59.67;;;31.13;;
2177;SDS011;1095;50.992;6.798;2023-02-11T09:51:22;59.95;;;31.10;;
2177;SDS011;1095;50.992;6.798;2023-02-11T09:54:05;58.13;;;30.35;;
2177;SDS011;1095;50.992;6.798;2023-02-11T09:56:38;56.92;;;30.90;;
2177;SDS011;1095;50.992;6.798;2023-02-11T09:59:05;52.70;;;31.02;;
2177;SDS011;1095;50.992;6.798;2023-02-11T10:01:38;65.68;;;32.88;;
2177;SDS011;1095;50.992;6.798;2023-02-11T10:04:12;57.38;;;30.33;;
2177;SDS011;1095;50.992;6.798;2023-02-11T10:06:43;60.30;;;30.27;;
2177;SDS011;1095;50.992;6.798;2023-02-11T10:12:34;57.30;;;31.00;;
2177;SDS011;1095;50.992;6.798;2023-02-11T10:15:14;57.33;;;30.42;;
2177;SDS011;1095;50.992;6.798;2023-02-11T10:20:45;57.05;;;30.52;;
2177;SDS011;1095;50.992;6.798;2023-02-11T10:23:19;53.13;;;29.38;;
2177;SDS011;1095;50.992;6.798;2023-02-11T10:25:51;54.08;;;29.42;;
2177;SDS011;1095;50.992;6.798;2023-02-11T10:28:20;56.55;;;31.17;;
2177;SDS011;1095;50.992;6.798;2023-02-11T10:30:51;52.78;;;30.02;;
2177;SDS011;1095;50.992;6.798;2023-02-11T10:33:26;58.67;;;29.67;;
2177;SDS011;1095;50.992;6.798;2023-02-11T10:35:56;53.13;;;28.83;;
2177;SDS011;1095;50.992;6.798;2023-02-11T10:38:23;56.70;;;29.85;;
2177;SDS011;1095;50.992;6.798;2023-02-11T10:40:50;57.80;;;30.15;;
2177;SDS011;1095;50.992;6.798;2023-02-11T10:43:18;57.05;;;31.33;;
2177;SDS011;1095;50.992;6.798;2023-02-11T10:45:47;64.55;;;31.55;;
2177;SDS011;1095;50.992;6.798;2023-02-11T10:48:37;64.18;;;32.25;;
2177;SDS011;1095;50.992;6.798;2023-02-11T10:51:07;60.17;;;31.90;;
2177;SDS011;1095;50.992;6.798;2023-02-11T10:53:40;59.50;;;31.02;;
2177;SDS011;1095;50.992;6.798;2023-02-11T10:56:09;56.15;;;31.92;;
2177;SDS011;1095;50.992;6.798;2023-02-11T10:58:39;64.22;;;31.50;;
2177;SDS011;1095;50.992;6.798;2023-02-11T11:01:09;64.50;;;32.08;;
2177;SDS011;1095;50.992;6.798;2023-02-11T11:03:46;61.90;;;31.73;;
2177;SDS011;1095;50.992;6.798;2023-02-11T11:06:14;61.20;;;30.80;;
2177;SDS011;1095;50.992;6.798;2023-02-11T11:08:42;59.88;;;32.47;;
2177;SDS011;1095;50.992;6.798;2023-02-11T11:11:11;61.15;;;31.38;;
2177;SDS011;1095;50.992;6.798;2023-02-11T11:13:40;60.70;;;30.92;;
2177;SDS011;1095;50.992;6.798;2023-02-11T11:16:20;64.72;;;32.15;;
2177;SDS011;1095;50.992;6.798;2023-02-11T11:18:50;59.33;;;31.08;;
2177;SDS011;1095;50.992;6.798;2023-02-11T11:21:20;63.85;;;32.90;;
2177;SDS011;1095;50.992;6.798;2023-02-11T11:23:53;63.83;;;32.42;;
2177;SDS011;1095;50.992;6.798;2023-02-11T11:26:22;61.53;;;31.73;;
2177;SDS011;1095;50.992;6.798;2023-02-11T11:28:55;63.72;;;33.40;;
2177;SDS011;1095;50.992;6.798;2023-02-11T11:31:24;57.25;;;32.10;;
2177;SDS011;1095;50.992;6.798;2023-02-11T11:33:56;63.80;;;31.58;;
2177;SDS011;1095;50.992;6.798;2023-02-11T11:36:29;62.30;;;32.78;;
2177;SDS011;1095;50.992;6.798;2023-02-11T11:39:00;58.83;;;31.27;;
2177;SDS011;1095;50.992;6.798;2023-02-11T11:41:35;64.35;;;31.90;;
2177;SDS011;1095;50.992;6.798;2023-02-11T11:44:22;63.63;;;32.58;;
2177;SDS011;1095;50.992;6.798;2023-02-11T11:46:51;65.30;;;34.05;;
2177;SDS011;1095;50.992;6.798;2023-02-11T11:49:40;62.45;;;32.20;;
2177;SDS011;1095;50.992;6.798;2023-02-11T11:52:15;60.95;;;32.63;;
2177;SDS011;1095;50.992;6.798;2023-02-11T11:54:52;62.92;;;32.17;;
2177;SDS011;1095;50.992;6.798;2023-02-11T11:57:24;62.75;;;31.73;;
2177;SDS011;1095;50.992;6.798;2023-02-11T11:59:53;61.42;;;32.88;;
2177;SDS011;1095;50.992;6.798;2023-02-11T12:02:28;62.08;;;32.35;;
2177;SDS011;1095;50.992;6.798;2023-02-11T12:05:12;62.88;;;33.17;;
2177;SDS011;1095;50.992;6.798;2023-02-11T12:07:48;63.22;;;31.63;;
2177;SDS011;1095;50.992;6.798;2023-02-11T12:13:18;62.90;;;32.78;;
2177;SDS011;1095;50.992;6.798;2023-02-11T12:15:54;62.17;;;32.97;;
2177;SDS011;1095;50.992;6.798;2023-02-11T12:21:31;62.30;;;33.20;;
2177;SDS011;1095;50.992;6.798;2023-02-11T12:24:12;67.20;;;34.42;;
2177;SDS011;1095;50.992;6.798;2023-02-11T12:26:55;70.15;;;34.17;;
2177;SDS011;1095;50.992;6.798;2023-02-11T12:29:27;71.78;;;35.10;;
2177;SDS011;1095;50.992;6.798;2023-02-11T12:32:06;65.10;;;34.22;;
2177;SDS011;1095;50.992;6.798;2023-02-11T12:37:39;65.70;;;34.55;;
2177;SDS011;1095;50.992;6.798;2023-02-11T12:40:15;72.60;;;36.33;;
2177;SDS011;1095;50.992;6.798;2023-02-11T12:42:51;74.38;;;36.63;;
2177;SDS011;1095;50.992;6.798;2023-02-11T12:49:02;70.45;;;35.50;;
2177;SDS011;1095;50.992;6.798;2023-02-11T12:51:44;78.35;;;38.13;;
2177;SDS011;1095;50.992;6.798;2023-02-11T12:54:24;69.15;;;34.45;;
2177;SDS011;1095;50.992;6.798;2023-02-11T12:56:56;77.10;;;36.05;;
2177;SDS011;1095;50.992;6.798;2023-02-11T13:02:17;71.45;;;37.13;;
2177;SDS011;1095;50.992;6.798;2023-02-11T13:04:51;83.32;;;37.72;;
2177;SDS011;1095;50.992;6.798;2023-02-11T13:07:21;75.05;;;37.30;;
2177;SDS011;1095;50.992;6.798;2023-02-11T13:09:55;69.07;;;36.50;;
2177;SDS011;1095;50.992;6.798;2023-02-11T13:15:12;70.20;;;34.10;;
2177;SDS011;1095;50.992;6.798;2023-02-11T13:17:43;72.15;;;37.13;;
2177;SDS011;1095;50.992;6.798;2023-02-11T13:20:20;71.93;;;36.28;;
2177;SDS011;1095;50.992;6.798;2023-02-11T13:22:58;74.20;;;35.78;;
2177;SDS011;1095;50.992;6.798;2023-02-11T13:25:33;69.07;;;36.28;;
2177;SDS011;1095;50.992;6.798;2023-02-11T13:28:10;70.40;;;36.00;;
2177;SDS011;1095;50.992;6.798;2023-02-11T13:30:45;70.07;;;36.10;;
2177;SDS011;1095;50.992;6.798;2023-02-11T13:33:31;71.85;;;36.30;;
2177;SDS011;1095;50.992;6.798;2023-02-11T13:36:09;71.70;;;37.28;;
2177;SDS011;1095;50.992;6.798;2023-02-11T13:38:52;76.38;;;38.00;;
2177;SDS011;1095;50.992;6.798;2023-02-11T13:41:29;74.05;;;36.63;;
2177;SDS011;1095;50.992;6.798;2023-02-11T13:43:59;75.18;;;37.78;;
2177;SDS011;1095;50.992;6.798;2023-02-11T13:49:48;77.75;;;37.45;;
2177;SDS011;1095;50.992;6.798;2023-02-11T13:52:21;73.40;;;36.85;;
2177;SDS011;1095;50.992;6.798;2023-02-11T13:54:51;73.82;;;36.83;;
2177;SDS011;1095;50.992;6.798;2023-02-11T13:57:24;75.90;;;38.00;;
2177;SDS011;1095;50.992;6.798;2023-02-11T13:59:55;74.80;;;36.65;;
2177;SDS011;1095;50.992;6.798;2023-02-11T14:02:24;76.32;;;37.05;;
2177;SDS011;1095;50.992;6.798;2023-02-11T14:05:22;68.40;;;35.13;;
2177;SDS011;1095;50.992;6.798;2023-02-11T14:14:19;78.00;;;37.33;;
2177;SDS011;1095;50.992;6.798;2023-02-11T14:19:55;72.40;;;37.15;;
2177;SDS011;1095;50.992;6.798;2023-02-11T14:22:49;72.53;;;36.50;;
2177;SDS011;1095;50.992;6.798;2023-02-11T14:25:19;70.78;;;36.80;;
2177;SDS011;1095;50.992;6.798;2023-02-11T14:27:50;72.40;;;36.42;;
2177;SDS011;1095;50.992;6.798;2023-02-11T14:36:39;72.10;;;36.13;;
2177;SDS011;1095;50.992;6.798;2023-02-11T14:39:34;69.10;;;35.72;;
2177;SDS011;1095;50.992;6.798;2023-02-11T14:42:13;66.28;;;34.72;;
2177;SDS011;1095;50.992;6.798;2023-02-11T14:46:05;69.43;;;36.53;;
2177;SDS011;1095;50.992;6.798;2023-02-11T14:50:40;69.60;;;36.00;;
2177;SDS011;1095;50.992;6.798;2023-02-11T14:53:11;65.90;;;35.53;;
2177;SDS011;1095;50.992;6.798;2023-02-11T14:55:44;72.47;;;37.03;;
2177;SDS011;1095;50.992;6.798;2023-02-11T14:58:15;67.10;;;34.53;;
2177;SDS011;1095;50.992;6.798;2023-02-11T15:03:34;68.65;;;35.50;;
2177;SDS011;1095;50.992;6.798;2023-02-11T15:06:04;64.97;;;34.03;;
2177;SDS011;1095;50.992;6.798;2023-02-11T15:08:33;68.10;;;36.85;;
2177;SDS011;1095;50.992;6.798;2023-02-11T15:11:06;66.40;;;34.67;;
2177;SDS011;1095;50.992;6.798;2023-02-11T15:13:35;64.93;;;35.45;;
2177;SDS011;1095;50.992;6.798;2023-02-11T15:16:11;69.55;;;34.78;;
2177;SDS011;1095;50.992;6.798;2023-02-11T15:18:44;64.88;;;34.33;;
2177;SDS011;1095;50.992;6.798;2023-02-11T15:21:19;64.90;;;34.13;;
2177;SDS011;1095;50.992;6.798;2023-02-11T15:23:54;63.85;;;35.58;;
2177;SDS011;1095;50.992;6.798;2023-02-11T15:26:23;62.13;;;34.13;;
2177;SDS011;1095;50.992;6.798;2023-02-11T15:28:50;68.30;;;35.45;;
2177;SDS011;1095;50.992;6.798;2023-02-11T15:31:18;66.68;;;33.88;;
2177;SDS011;1095;50.992;6.798;2023-02-11T15:33:47;65.30;;;34.08;;
2177;SDS011;1095;50.992;6.798;2023-02-11T15:36:14;69.35;;;36.55;;
2177;SDS011;1095;50.992;6.798;2023-02-11T15:38:42;71.00;;;35.40;;
2177;SDS011;1095;50.992;6.798;2023-02-11T15:44:01;66.85;;;35.45;;
2177;SDS011;1095;50.992;6.798;2023-02-11T15:46:31;63.05;;;33.72;;
2177;SDS011;1095;50.992;6.798;2023-02-11T15:49:03;67.10;;;34.90;;
2177;SDS011;1095;50.992;6.798;2023-02-11T15:51:33;68.88;;;34.90;;
2177;SDS011;1095;50.992;6.798;2023-02-11T15:54:07;65.35;;;34.85;;
2177;SDS011;1095;50.992;6.798;2023-02-11T15:56:46;65.65;;;34.53;;
2177;SDS011;1095;50.992;6.798;2023-02-11T15:59:19;62.22;;;33.60;;
2177;SDS011;1095;50.992;6.798;2023-02-11T16:01:52;65.32;;;35.78;;
2177;SDS011;1095;50.992;6.798;2023-02-11T16:04:25;68.22;;;35.40;;
2177;SDS011;1095;50.992;6.798;2023-02-11T16:06:53;68.10;;;35.92;;
2177;SDS011;1095;50.992;6.798;2023-02-11T16:09:22;70.40;;;37.15;;